createdAt,value
2022-08-09T00:00:04.545Z,81.47
2022-08-09T00:00:35.763Z,81.91
2022-08-09T00:01:16.482Z,83.69
2022-08-09T00:01:54.989Z,81.91
2022-08-09T00:02:21.518Z,81.71
2022-08-09T00:02:56.648Z,82.11
2022-08-09T00:04:05.672Z,82.71
2022-08-09T00:04:25.107Z,83.22
2022-08-09T00:04:42.842Z,83.93
2022-08-09T00:06:17.602Z,82.31
2022-08-09T00:06:17.654Z,83.62
2022-08-09T00:06:28.612Z,83.22
2022-08-09T00:07:03.902Z,81.61
2022-08-09T00:07:44.498Z,82.11
2022-08-09T00:08:32.137Z,82.21
2022-08-09T00:08:49.933Z,80.20
2022-08-09T00:09:25.126Z,79.63
2022-08-09T00:10:00.646Z,80.84
2022-08-09T00:10:35.850Z,81.15
2022-08-09T00:11:24.856Z,80.44
2022-08-09T00:12:04.267Z,81.04
2022-08-09T00:12:22.691Z,81.85
2022-08-09T00:12:56.866Z,84.37
2022-08-09T00:13:32.396Z,84.51
2022-08-09T00:14:07.822Z,83.87
2022-08-09T00:14:43.039Z,81.45
2022-08-09T00:15:18.350Z,83.66
2022-08-09T00:15:59.066Z,83.76
2022-08-09T00:16:36.699Z,82.45
2022-08-09T00:17:03.987Z,80.84
2022-08-09T00:18:05.885Z,81.95
2022-08-09T00:18:14.854Z,80.24
2022-08-09T00:18:49.722Z,83.16
2022-08-09T00:19:24.856Z,82.05
2022-08-09T00:20:00.039Z,82.25
2022-08-09T00:20:35.253Z,83.46
2022-08-09T00:21:10.725Z,84.97
2022-08-09T00:21:55.855Z,84.27
2022-08-09T00:22:21.429Z,85.38
2022-08-09T00:22:56.536Z,83.46
2022-08-09T00:23:54.769Z,85.28
2022-08-09T00:24:07.352Z,84.77
2022-08-09T00:24:42.846Z,85.48
2022-08-09T00:25:23.555Z,85.28
2022-08-09T00:25:53.055Z,85.68
2022-08-09T00:26:29.906Z,84.27
2022-08-09T00:27:03.531Z,82.76
2022-08-09T00:27:43.259Z,82.15
2022-08-09T00:28:13.947Z,81.85
2022-08-09T00:28:52.966Z,82.25
2022-08-09T00:30:16.209Z,81.95
2022-08-09T00:30:23.334Z,80.94
2022-08-09T00:30:34.645Z,82.05
2022-08-09T00:31:57.375Z,83.36
2022-08-09T00:31:58.927Z,80.74
2022-08-09T00:32:26.859Z,81.04
2022-08-09T00:32:56.050Z,80.98
2022-08-09T00:33:49.057Z,80.74
2022-08-09T00:34:06.655Z,83.46
2022-08-09T00:34:46.291Z,85.38
2022-08-09T00:35:16.865Z,84.37
2022-08-09T00:35:51.908Z,84.88
2022-08-09T00:36:30.700Z,84.88
2022-08-09T00:37:02.313Z,85.28
2022-08-09T00:37:37.843Z,84.27
2022-08-09T00:38:13.039Z,83.56
2022-08-09T00:38:50.670Z,83.76
2022-08-09T00:40:09.793Z,85.38
2022-08-09T00:40:13.967Z,85.52
2022-08-09T00:40:34.086Z,85.28
2022-08-09T00:41:09.263Z,85.48
2022-08-09T00:44:10.934Z,84.97
2022-08-09T00:44:11.527Z,84.37
2022-08-09T00:44:13.224Z,83.36
2022-08-09T00:44:15.309Z,85.08
2022-08-09T00:44:15.692Z,83.66
2022-08-09T00:44:40.332Z,83.16
2022-08-09T00:45:16.135Z,83.36
2022-08-09T00:45:54.174Z,83.87
2022-08-09T00:46:55.580Z,85.38
2022-08-09T00:47:05.635Z,84.27
2022-08-09T00:47:39.877Z,84.47
2022-08-09T00:48:15.448Z,85.28
2022-08-09T00:48:49.407Z,86.79
2022-08-09T00:49:22.747Z,87.70
2022-08-09T00:49:58.072Z,87.90
2022-08-09T00:50:33.497Z,88.00
2022-08-09T00:51:11.836Z,87.90
2022-08-09T00:51:54.321Z,86.58
2022-08-09T00:52:19.346Z,87.60
2022-08-09T00:52:54.682Z,85.48
2022-08-09T00:53:29.793Z,85.38
2022-08-09T00:54:05.110Z,82.50
2022-08-09T00:54:40.503Z,84.01
2022-08-09T00:55:32.683Z,83.40
2022-08-09T00:56:04.968Z,84.01
2022-08-09T00:56:26.347Z,85.62
2022-08-09T00:57:01.675Z,84.41
2022-08-09T00:57:36.971Z,85.46
2022-08-09T00:58:14.813Z,85.76
2022-08-09T00:58:48.894Z,84.95
2022-08-09T00:59:40.589Z,85.56
2022-08-09T00:59:57.893Z,86.77
2022-08-09T01:00:35.147Z,85.52
2022-08-09T01:01:08.486Z,85.66
2022-08-09T01:01:44.714Z,85.56
2022-08-09T01:02:18.777Z,84.95
2022-08-09T01:02:54.319Z,84.55
2022-08-09T01:03:29.538Z,84.85
2022-08-09T01:04:04.852Z,86.16
2022-08-09T01:04:40.027Z,87.27
2022-08-09T01:05:22.130Z,86.07
2022-08-09T01:05:54.330Z,88.39
2022-08-09T01:06:53.185Z,87.27
2022-08-09T01:07:02.090Z,87.88
2022-08-09T01:07:38.158Z,86.36
2022-08-09T01:08:12.553Z,86.16
2022-08-09T01:08:49.673Z,85.76
2022-08-09T01:09:23.357Z,85.40
2022-08-09T01:09:58.646Z,85.76
2022-08-09T01:10:34.104Z,86.36
2022-08-09T01:11:09.313Z,85.96
2022-08-09T01:11:55.679Z,86.07
2022-08-09T01:12:19.752Z,85.56
2022-08-09T01:12:55.076Z,86.47
2022-08-09T01:13:31.330Z,85.16
2022-08-09T01:14:05.620Z,86.27
2022-08-09T01:14:40.771Z,86.77
2022-08-09T01:15:16.911Z,87.58
2022-08-09T01:15:51.988Z,88.68
2022-08-09T01:16:26.476Z,87.78
2022-08-09T01:17:01.802Z,87.18
2022-08-09T01:17:37.135Z,87.38
2022-08-09T01:18:14.372Z,86.27
2022-08-09T01:19:01.690Z,86.57
2022-08-09T01:19:40.170Z,86.97
2022-08-09T01:20:02.670Z,88.28
2022-08-09T01:20:33.839Z,88.39
2022-08-09T01:21:09.974Z,88.99
2022-08-09T01:21:50.937Z,86.97
2022-08-09T01:22:20.673Z,86.47
2022-08-09T01:22:55.974Z,87.62
2022-08-09T01:24:03.531Z,87.68
2022-08-09T01:24:06.261Z,86.67
2022-08-09T01:24:41.435Z,87.18
2022-08-09T01:25:17.653Z,88.08
2022-08-09T01:25:51.931Z,88.99
2022-08-09T01:26:27.133Z,88.39
2022-08-09T01:27:02.475Z,86.67
2022-08-09T01:27:37.581Z,86.36
2022-08-09T01:28:12.605Z,87.98
2022-08-09T01:28:47.804Z,87.98
2022-08-09T01:29:23.019Z,85.76
2022-08-09T01:29:58.533Z,86.21
2022-08-09T01:30:51.283Z,86.21
2022-08-09T01:31:09.459Z,86.51
2022-08-09T01:32:30.117Z,85.80
2022-08-09T01:32:30.118Z,86.41
2022-08-09T01:32:55.376Z,86.21
2022-08-09T01:33:30.473Z,87.21
2022-08-09T01:34:05.688Z,87.72
2022-08-09T01:34:41.214Z,88.02
2022-08-09T01:35:28.606Z,89.54
2022-08-09T01:35:52.162Z,86.41
2022-08-09T01:36:27.056Z,86.00
2022-08-09T01:37:02.264Z,87.32
2022-08-09T01:38:05.807Z,87.32
2022-08-09T01:38:15.092Z,87.21
2022-08-09T01:38:48.142Z,87.32
2022-08-09T01:39:23.509Z,88.53
2022-08-09T01:39:58.417Z,89.13
2022-08-09T01:40:33.619Z,89.13
2022-08-09T01:41:08.831Z,88.73
2022-08-09T01:41:53.437Z,89.94
2022-08-09T01:42:19.275Z,88.18
2022-08-09T01:42:54.403Z,89.29
2022-08-09T01:43:29.840Z,88.53
2022-08-09T01:44:05.133Z,88.99
2022-08-09T01:44:40.484Z,89.13
2022-08-09T01:45:15.810Z,89.09
2022-08-09T01:45:51.033Z,88.63
2022-08-09T01:46:27.265Z,87.92
2022-08-09T01:47:02.182Z,87.78
2022-08-09T01:47:44.729Z,88.18
2022-08-09T01:48:12.514Z,89.39
2022-08-09T01:48:48.263Z,89.29
2022-08-09T01:49:24.314Z,89.09
2022-08-09T01:49:58.691Z,88.48
2022-08-09T01:50:36.954Z,89.03
2022-08-09T01:51:09.262Z,88.59
2022-08-09T01:51:53.504Z,88.89
2022-08-09T01:52:19.686Z,88.99
2022-08-09T01:52:54.842Z,87.98
2022-08-09T01:53:41.332Z,88.59
2022-08-09T01:54:05.246Z,89.13
2022-08-09T01:54:40.464Z,89.03
2022-08-09T01:55:15.683Z,89.90
2022-08-09T01:55:50.834Z,90.45
2022-08-09T01:56:26.213Z,90.45
2022-08-09T01:57:04.048Z,88.73
2022-08-09T01:57:39.945Z,88.53
2022-08-09T01:58:12.295Z,89.64
2022-08-09T01:58:49.114Z,88.93
2022-08-09T01:59:23.117Z,89.54
2022-08-09T01:59:59.876Z,90.24
2022-08-09T02:00:35.691Z,87.72
2022-08-09T02:01:08.750Z,88.12
2022-08-09T02:01:59.669Z,89.03
2022-08-09T02:02:19.177Z,89.23
2022-08-09T02:02:54.277Z,89.94
2022-08-09T02:03:29.618Z,88.83
2022-08-09T02:04:04.627Z,89.03
2022-08-09T02:04:40.617Z,89.43
2022-08-09T02:05:16.032Z,90.24
2022-08-09T02:06:03.666Z,90.24
2022-08-09T02:06:25.606Z,89.84
2022-08-09T02:07:02.056Z,89.03
2022-08-09T02:08:40.278Z,88.77
2022-08-09T02:08:40.464Z,90.04
2022-08-09T02:08:59.163Z,89.23
2022-08-09T02:09:22.316Z,89.03
2022-08-09T02:09:59.295Z,90.04
2022-08-09T02:10:32.656Z,90.14
2022-08-09T02:11:16.823Z,90.75
2022-08-09T02:11:43.840Z,90.34
2022-08-09T02:12:21.351Z,88.73
2022-08-09T02:12:53.429Z,90.55
2022-08-09T02:13:37.695Z,89.84
2022-08-09T02:14:07.282Z,88.43
2022-08-09T02:14:39.363Z,90.34
2022-08-09T02:15:16.757Z,89.03
2022-08-09T02:15:50.778Z,89.43
2022-08-09T02:16:33.662Z,89.64
2022-08-09T02:17:59.329Z,89.94
2022-08-09T02:18:00.750Z,89.54
2022-08-09T02:18:11.529Z,90.34
2022-08-09T02:18:48.388Z,89.94
2022-08-09T02:19:22.184Z,90.65
2022-08-09T02:19:57.488Z,90.55
2022-08-09T02:20:34.094Z,91.76
2022-08-09T02:21:08.157Z,90.75
2022-08-09T02:21:43.322Z,90.34
2022-08-09T02:22:19.080Z,89.94
2022-08-09T02:22:53.910Z,90.04
2022-08-09T02:23:39.564Z,89.54
2022-08-09T02:24:04.580Z,90.45
2022-08-09T02:24:39.915Z,90.04
2022-08-09T02:25:17.014Z,90.55
2022-08-09T02:25:55.688Z,90.69
2022-08-09T02:26:27.467Z,90.55
2022-08-09T02:27:00.683Z,89.84
2022-08-09T02:27:58.191Z,90.55
2022-08-09T02:28:11.098Z,89.23
2022-08-09T02:28:46.316Z,89.13
2022-08-09T02:29:21.717Z,88.63
2022-08-09T02:29:57.144Z,87.76
2022-08-09T02:30:32.479Z,88.73
2022-08-09T02:31:07.503Z,89.78
2022-08-09T02:31:42.740Z,90.45
2022-08-09T02:32:18.094Z,90.45
2022-08-09T02:32:52.900Z,90.19
2022-08-09T02:33:38.458Z,90.04
2022-08-09T02:34:06.931Z,90.08
2022-08-09T02:34:40.644Z,89.98
2022-08-09T02:35:17.357Z,90.19
2022-08-09T02:36:02.710Z,90.79
2022-08-09T02:36:26.305Z,90.49
2022-08-09T02:36:59.890Z,89.94
2022-08-09T02:37:36.718Z,88.17
2022-08-09T02:38:10.367Z,88.12
2022-08-09T02:38:47.455Z,89.17
2022-08-09T02:39:33.944Z,88.77
2022-08-09T02:39:55.744Z,90.08
2022-08-09T02:40:31.066Z,90.49
2022-08-09T02:41:06.407Z,89.68
2022-08-09T02:41:41.947Z,90.55
2022-08-09T02:42:17.257Z,89.78
2022-08-09T02:42:52.291Z,89.88
2022-08-09T02:43:28.784Z,90.79
2022-08-09T02:44:10.374Z,89.74
2022-08-09T02:44:38.053Z,89.28
2022-08-09T02:45:13.370Z,88.67
2022-08-09T02:45:48.731Z,89.07
2022-08-09T02:46:24.007Z,88.26
2022-08-09T02:46:59.299Z,89.58
2022-08-09T02:47:57.239Z,90.08
2022-08-09T02:48:12.268Z,88.26
2022-08-09T02:48:46.236Z,88.17
2022-08-09T02:49:20.674Z,88.26
2022-08-09T02:50:01.813Z,88.37
2022-08-09T02:50:31.012Z,88.37
2022-08-09T02:51:06.509Z,88.37
2022-08-09T02:51:41.626Z,88.26
2022-08-09T02:52:17.150Z,87.96
2022-08-09T02:52:55.402Z,87.86
2022-08-09T02:53:27.863Z,88.71
2022-08-09T02:54:03.054Z,87.05
2022-08-09T02:54:53.928Z,87.50
2022-08-09T02:55:20.623Z,87.81
2022-08-09T02:55:58.558Z,87.90
2022-08-09T02:56:23.977Z,88.01
2022-08-09T02:56:59.099Z,88.61
2022-08-09T02:57:40.452Z,89.42
2022-08-09T02:58:32.254Z,88.41
2022-08-09T02:58:45.653Z,89.52
2022-08-09T02:59:26.256Z,90.33
2022-08-09T03:00:21.179Z,89.83
2022-08-09T03:00:30.722Z,90.03
2022-08-09T03:01:08.183Z,90.33
2022-08-09T03:01:42.720Z,87.81
2022-08-09T03:02:17.245Z,88.92
2022-08-09T03:03:00.169Z,88.81
2022-08-09T03:04:12.281Z,90.12
2022-08-09T03:04:16.771Z,90.43
2022-08-09T03:04:38.244Z,90.83
2022-08-09T03:05:16.701Z,90.83
2022-08-09T03:05:48.958Z,89.01
2022-08-09T03:06:25.110Z,88.21
2022-08-09T03:07:12.329Z,89.12
2022-08-09T03:07:35.315Z,90.23
2022-08-09T03:08:10.450Z,88.01
2022-08-09T03:08:45.870Z,89.12
2022-08-09T03:09:21.086Z,90.33
2022-08-09T03:09:56.823Z,90.83
2022-08-09T03:10:31.192Z,89.62
2022-08-09T03:11:06.523Z,88.81
2022-08-09T03:12:06.437Z,88.92
2022-08-09T03:12:17.338Z,88.25
2022-08-09T03:12:52.884Z,89.06
2022-08-09T03:13:28.220Z,88.41
2022-08-09T03:14:03.521Z,89.72
2022-08-09T03:14:39.041Z,89.62
2022-08-09T03:15:14.238Z,88.96
2022-08-09T03:16:06.592Z,89.06
2022-08-09T03:16:25.086Z,88.96
2022-08-09T03:17:01.881Z,88.35
2022-08-09T03:17:35.478Z,88.45
2022-08-09T03:18:10.893Z,89.36
2022-08-09T03:18:46.097Z,89.56
2022-08-09T03:19:59.552Z,90.12
2022-08-09T03:20:00.085Z,90.23
2022-08-09T03:20:31.753Z,90.78
2022-08-09T03:21:06.970Z,90.17
2022-08-09T03:21:42.102Z,90.88
2022-08-09T03:22:25.749Z,88.25
2022-08-09T03:22:56.957Z,88.85
2022-08-09T03:23:27.537Z,89.16
2022-08-09T03:24:04.247Z,88.96
2022-08-09T03:24:42.717Z,88.45
2022-08-09T03:25:26.517Z,89.36
2022-08-09T03:25:59.021Z,90.47
2022-08-09T03:26:28.424Z,89.97
2022-08-09T03:26:59.630Z,88.15
2022-08-09T03:27:44.629Z,88.25
2022-08-09T03:28:11.347Z,89.46
2022-08-09T03:28:45.039Z,89.76
2022-08-09T03:29:23.025Z,89.76
2022-08-09T03:29:57.105Z,90.78
2022-08-09T03:30:33.958Z,90.37
2022-08-09T03:31:10.455Z,91.74
2022-08-09T03:31:42.456Z,92.29
2022-08-09T03:32:16.838Z,93.10
2022-08-09T03:32:52.471Z,90.67
2022-08-09T03:33:54.359Z,92.09
2022-08-09T03:34:03.029Z,91.99
2022-08-09T03:34:38.053Z,91.78
2022-08-09T03:35:14.844Z,91.78
2022-08-09T03:36:12.303Z,91.78
2022-08-09T03:36:27.483Z,91.03
2022-08-09T03:37:02.276Z,91.99
2022-08-09T03:37:54.259Z,91.38
2022-08-09T03:38:09.182Z,89.97
2022-08-09T03:38:44.861Z,90.07
2022-08-09T03:39:19.881Z,90.47
2022-08-09T03:39:56.662Z,91.85
2022-08-09T03:40:31.064Z,92.09
2022-08-09T03:41:05.393Z,93.10
2022-08-09T03:41:45.720Z,90.37
2022-08-09T03:42:16.061Z,91.89
2022-08-09T03:42:51.162Z,91.89
2022-08-09T03:43:31.785Z,91.89
2022-08-09T03:44:07.882Z,90.67
2022-08-09T03:44:37.339Z,90.67
2022-08-09T03:45:12.863Z,92.09
2022-08-09T03:46:03.858Z,91.28
2022-08-09T03:46:29.397Z,90.92
2022-08-09T03:46:58.958Z,92.40
2022-08-09T03:47:39.838Z,92.90
2022-08-09T03:48:09.790Z,91.18
2022-08-09T03:48:51.452Z,90.52
2022-08-09T03:49:21.359Z,90.31
2022-08-09T03:49:58.814Z,90.41
2022-08-09T03:50:31.918Z,90.41
2022-08-09T03:51:05.597Z,91.93
2022-08-09T03:51:55.340Z,91.22
2022-08-09T03:52:15.837Z,90.52
2022-08-09T03:52:51.009Z,91.12
2022-08-09T03:53:32.384Z,92.03
2022-08-09T03:54:01.473Z,91.02
2022-08-09T03:54:38.575Z,90.11
2022-08-09T03:55:14.469Z,89.91
2022-08-09T03:55:46.912Z,89.50
2022-08-09T03:56:22.314Z,90.01
2022-08-09T03:56:58.101Z,89.30
2022-08-09T03:57:33.257Z,89.00
2022-08-09T03:58:16.179Z,89.30
2022-08-09T03:58:43.491Z,89.70
2022-08-09T03:59:27.063Z,90.72
2022-08-09T03:59:56.135Z,91.12
2022-08-09T04:00:29.433Z,90.31
2022-08-09T04:01:04.885Z,90.82
2022-08-09T04:01:40.131Z,90.31
2022-08-09T04:02:15.557Z,90.21
2022-08-09T04:02:52.708Z,90.41
2022-08-09T04:03:45.750Z,90.92
2022-08-09T04:04:03.871Z,92.13
2022-08-09T04:04:38.791Z,92.03
2022-08-09T04:05:17.164Z,91.93
2022-08-09T04:05:47.125Z,92.64
2022-08-09T04:06:22.538Z,92.03
2022-08-09T04:06:57.729Z,92.64
2022-08-09T04:07:47.465Z,92.44
2022-08-09T04:08:07.846Z,91.12
2022-08-09T04:08:46.604Z,90.21
2022-08-09T04:09:47.926Z,89.91
2022-08-09T04:09:53.853Z,90.82
2022-08-09T04:10:30.215Z,92.13
2022-08-09T04:11:03.986Z,92.03
2022-08-09T04:11:39.373Z,92.74
2022-08-09T04:12:31.067Z,92.33
2022-08-09T04:12:50.874Z,92.64
2022-08-09T04:13:44.981Z,93.24
2022-08-09T04:14:43.997Z,92.90
2022-08-09T04:15:00.790Z,93.04
2022-08-09T04:15:51.886Z,92.24
2022-08-09T04:16:20.075Z,90.72
2022-08-09T04:16:28.322Z,91.53
2022-08-09T04:17:03.524Z,90.82
2022-08-09T04:17:38.415Z,90.31
2022-08-09T04:18:18.090Z,90.62
2022-08-09T04:18:49.207Z,91.63
2022-08-09T04:19:30.027Z,91.02
2022-08-09T04:19:58.784Z,90.62
2022-08-09T04:20:34.092Z,91.32
2022-08-09T04:21:09.408Z,91.93
2022-08-09T04:21:44.585Z,92.24
2022-08-09T04:22:20.001Z,91.73
2022-08-09T04:22:55.129Z,92.24
2022-08-09T04:23:30.231Z,91.83
2022-08-09T04:24:05.638Z,90.92
2022-08-09T04:24:40.819Z,92.03
2022-08-09T04:25:16.143Z,90.21
2022-08-09T04:25:52.447Z,90.92
2022-08-09T04:26:35.188Z,91.12
2022-08-09T04:27:01.565Z,89.91
2022-08-09T04:27:37.890Z,89.30
2022-08-09T04:28:12.465Z,89.20
2022-08-09T04:28:47.115Z,89.81
2022-08-09T04:29:22.430Z,90.16
2022-08-09T04:29:57.503Z,90.56
2022-08-09T04:30:32.831Z,90.66
2022-08-09T04:31:09.761Z,89.40
2022-08-09T04:31:47.358Z,89.34
2022-08-09T04:32:31.249Z,90.05
2022-08-09T04:32:54.327Z,90.01
2022-08-09T04:33:29.338Z,89.95
2022-08-09T04:34:04.278Z,90.25
2022-08-09T04:34:39.269Z,90.16
2022-08-09T04:35:14.378Z,89.85
2022-08-09T04:35:49.703Z,90.36
2022-08-09T04:36:25.042Z,90.56
2022-08-09T04:37:00.298Z,90.66
2022-08-09T04:37:45.306Z,91.27
2022-08-09T04:38:10.995Z,92.08
2022-08-09T04:38:46.206Z,91.27
2022-08-09T04:39:21.627Z,90.92
2022-08-09T04:39:57.005Z,90.86
2022-08-09T04:40:36.480Z,91.77
2022-08-09T04:41:11.830Z,92.74
2022-08-09T04:41:43.669Z,92.54
2022-08-09T04:42:18.563Z,91.37
2022-08-09T04:42:53.066Z,90.36
2022-08-09T04:43:28.261Z,90.72
2022-08-09T04:44:05.705Z,90.45
2022-08-09T04:44:38.898Z,90.56
2022-08-09T04:45:14.310Z,89.85
2022-08-09T04:45:53.954Z,90.25
2022-08-09T04:46:36.573Z,89.95
2022-08-09T04:47:05.992Z,89.54
2022-08-09T04:47:59.253Z,89.45
2022-08-09T04:48:10.858Z,89.45
2022-08-09T04:48:50.353Z,89.54
2022-08-09T04:49:22.291Z,90.16
2022-08-09T04:49:56.785Z,90.45
2022-08-09T04:50:34.992Z,90.16
2022-08-09T04:51:07.634Z,90.66
2022-08-09T04:51:42.825Z,90.96
2022-08-09T04:52:18.679Z,90.45
2022-08-09T04:52:53.030Z,90.56
2022-08-09T04:53:28.244Z,90.36
2022-08-09T04:54:03.335Z,90.66
2022-08-09T04:54:38.736Z,90.25
2022-08-09T04:55:13.946Z,89.75
2022-08-09T04:55:58.413Z,90.60
2022-08-09T04:56:26.277Z,90.20
2022-08-09T04:56:59.854Z,90.45
2022-08-09T04:57:59.028Z,90.86
2022-08-09T04:58:10.159Z,90.30
2022-08-09T04:58:45.625Z,90.86
2022-08-09T04:59:21.106Z,90.96
2022-08-09T04:59:56.043Z,90.60
2022-08-09T05:00:31.950Z,90.66
2022-08-09T05:01:16.442Z,90.56
2022-08-09T05:01:41.609Z,90.56
2022-08-09T05:02:16.704Z,90.45
2022-08-09T05:02:53.054Z,90.76
2022-08-09T05:03:40.234Z,90.66
2022-08-09T05:04:03.063Z,90.96
2022-08-09T05:04:38.156Z,90.56
2022-08-09T05:05:13.356Z,90.96
2022-08-09T05:05:51.880Z,90.25
2022-08-09T05:06:27.195Z,90.76
2022-08-09T05:06:59.461Z,90.56
2022-08-09T05:07:34.798Z,90.45
2022-08-09T05:08:09.996Z,90.25
2022-08-09T05:08:48.088Z,90.25
2022-08-09T05:09:21.106Z,90.45
2022-08-09T05:09:56.350Z,90.76
2022-08-09T05:10:31.564Z,90.66
2022-08-09T05:11:07.739Z,90.25
2022-08-09T05:11:43.479Z,90.86
2022-08-09T05:12:17.683Z,90.45
2022-08-09T05:12:53.080Z,90.25
2022-08-09T05:13:28.473Z,90.66
2022-08-09T05:14:05.820Z,90.76
2022-08-09T05:14:41.302Z,90.66
2022-08-09T05:15:24.820Z,90.66
2022-08-09T05:15:56.463Z,90.56
2022-08-09T05:16:28.531Z,91.02
2022-08-09T05:17:00.368Z,90.86
2022-08-09T05:18:37.819Z,90.56
2022-08-09T05:18:38.874Z,91.06
2022-08-09T05:18:57.719Z,90.86
2022-08-09T05:19:24.446Z,90.86
2022-08-09T05:19:58.058Z,90.76
2022-08-09T05:20:32.352Z,90.31
2022-08-09T05:21:09.847Z,90.11
2022-08-09T05:21:47.379Z,90.21
2022-08-09T05:22:33.502Z,90.41
2022-08-09T05:23:55.404Z,90.11
2022-08-09T05:23:55.508Z,90.21
2022-08-09T05:24:04.772Z,90.31
2022-08-09T05:24:39.132Z,90.62
2022-08-09T05:25:15.105Z,90.31
2022-08-09T05:25:50.999Z,90.62
2022-08-09T05:26:36.030Z,90.62
2022-08-09T05:26:59.934Z,90.21
2022-08-09T05:27:35.050Z,90.41
2022-08-09T05:28:10.147Z,90.31
2022-08-09T05:28:45.047Z,90.72
2022-08-09T05:29:21.994Z,90.17
2022-08-09T05:29:55.345Z,90.11
2022-08-09T05:30:31.473Z,90.27
2022-08-09T05:31:09.688Z,90.21
2022-08-09T05:31:44.427Z,89.76
2022-08-09T05:32:16.686Z,89.91
2022-08-09T05:32:53.323Z,90.88
2022-08-09T05:33:33.043Z,90.27
2022-08-09T05:34:01.894Z,90.27
2022-08-09T05:34:37.026Z,89.87
2022-08-09T05:35:12.017Z,89.87
2022-08-09T05:35:50.067Z,89.66
2022-08-09T05:36:22.539Z,89.36
2022-08-09T05:36:57.961Z,89.26
2022-08-09T05:37:38.178Z,89.36
2022-08-09T05:38:08.456Z,89.46
2022-08-09T05:38:43.656Z,90.37
2022-08-09T05:39:28.937Z,89.83
2022-08-09T05:39:54.346Z,90.12
2022-08-09T05:40:29.830Z,89.83
2022-08-09T05:41:04.932Z,90.12
2022-08-09T05:41:40.185Z,90.23
2022-08-09T05:42:17.629Z,89.56
2022-08-09T05:42:50.984Z,90.03
2022-08-09T05:43:28.949Z,89.32
2022-08-09T05:44:01.692Z,88.81
2022-08-09T05:44:37.025Z,89.22
2022-08-09T05:45:14.693Z,89.26
2022-08-09T05:45:55.621Z,89.66
2022-08-09T05:46:22.641Z,89.42
2022-08-09T05:46:58.248Z,89.42
2022-08-09T05:47:33.518Z,89.62
2022-08-09T05:48:08.652Z,89.62
2022-08-09T05:48:43.963Z,89.83
2022-08-09T05:49:33.870Z,90.23
2022-08-09T05:50:23.784Z,90.33
2022-08-09T05:50:50.588Z,89.62
2022-08-09T05:51:42.796Z,88.71
2022-08-09T05:51:43.124Z,89.17
2022-08-09T05:52:15.469Z,88.77
2022-08-09T05:52:53.854Z,88.47
2022-08-09T05:53:32.110Z,88.77
2022-08-09T05:54:01.577Z,88.06
2022-08-09T05:54:36.684Z,88.67
2022-08-09T05:55:18.180Z,88.06
2022-08-09T05:55:46.743Z,87.56
2022-08-09T05:56:22.427Z,87.92
2022-08-09T05:56:57.755Z,87.82
2022-08-09T05:57:56.081Z,87.72
2022-08-09T05:58:08.154Z,88.83
2022-08-09T05:58:43.247Z,88.02
2022-08-09T05:59:18.855Z,87.72
2022-08-09T05:59:54.149Z,88.02
2022-08-09T06:00:29.978Z,88.23
2022-08-09T06:01:04.683Z,87.21
2022-08-09T06:01:42.559Z,87.82
2022-08-09T06:02:17.077Z,87.82
2022-08-09T06:02:53.981Z,86.97
2022-08-09T06:03:43.703Z,87.68
2022-08-09T06:04:01.309Z,87.68
2022-08-09T06:04:36.565Z,87.88
2022-08-09T06:05:11.786Z,87.58
2022-08-09T06:05:57.765Z,87.88
2022-08-09T06:06:22.238Z,87.43
2022-08-09T06:06:57.731Z,87.54
2022-08-09T06:07:32.945Z,86.73
2022-08-09T06:08:08.977Z,87.23
2022-08-09T06:08:43.537Z,86.22
2022-08-09T06:09:41.163Z,86.22
2022-08-09T06:10:02.009Z,86.18
2022-08-09T06:10:29.116Z,85.28
2022-08-09T06:11:16.346Z,85.48
2022-08-09T06:11:41.133Z,84.97
2022-08-09T06:12:15.050Z,85.78
2022-08-09T06:12:57.843Z,85.28
2022-08-09T06:13:25.449Z,85.08
2022-08-09T06:14:00.737Z,85.58
2022-08-09T06:14:36.074Z,85.78
2022-08-09T06:15:11.455Z,84.97
2022-08-09T06:15:47.126Z,84.67
2022-08-09T06:16:22.165Z,84.74
2022-08-09T06:16:57.560Z,85.44
2022-08-09T06:17:39.255Z,84.74
2022-08-09T06:18:08.038Z,84.53
2022-08-09T06:18:43.121Z,84.83
2022-08-09T06:19:18.431Z,84.94
2022-08-09T06:19:53.927Z,85.14
2022-08-09T06:20:29.140Z,84.09
2022-08-09T06:21:04.485Z,83.89
2022-08-09T06:21:50.323Z,84.19
2022-08-09T06:22:15.408Z,83.99
2022-08-09T06:22:49.936Z,82.68
2022-08-09T06:23:57.627Z,82.38
2022-08-09T06:24:02.307Z,82.64
2022-08-09T06:24:35.899Z,82.04
2022-08-09T06:25:12.457Z,82.07
2022-08-09T06:25:46.277Z,81.84
2022-08-09T06:26:22.373Z,81.84
2022-08-09T06:26:56.891Z,82.04
2022-08-09T06:27:42.389Z,82.34
2022-08-09T06:28:07.249Z,81.73
2022-08-09T06:28:43.266Z,82.30
2022-08-09T06:29:17.443Z,81.49
2022-08-09T06:30:04.447Z,81.90
2022-08-09T06:30:27.749Z,82.10
2022-08-09T06:31:02.964Z,80.49
2022-08-09T06:31:40.110Z,81.46
2022-08-09T06:32:53.519Z,80.05
2022-08-09T06:33:00.708Z,81.19
2022-08-09T06:33:40.271Z,81.76
2022-08-09T06:33:58.524Z,79.94
2022-08-09T06:34:33.922Z,79.35
2022-08-09T06:35:09.218Z,79.44
2022-08-09T06:35:57.123Z,79.44
2022-08-09T06:36:20.399Z,79.74
2022-08-09T06:36:59.505Z,81.32
2022-08-09T06:37:31.013Z,80.65
2022-08-09T06:38:06.915Z,79.04
2022-08-09T06:38:50.223Z,78.40
2022-08-09T06:39:17.498Z,78.90
2022-08-09T06:39:59.869Z,79.00
2022-08-09T06:40:28.155Z,79.10
2022-08-09T06:41:03.564Z,79.37
2022-08-09T06:42:07.688Z,76.96
2022-08-09T06:42:13.804Z,77.86
2022-08-09T06:42:49.126Z,78.16
2022-08-09T06:43:24.626Z,77.96
2022-08-09T06:43:59.941Z,78.73
2022-08-09T06:44:35.372Z,78.13
2022-08-09T06:46:06.707Z,78.13
2022-08-09T06:46:07.745Z,78.42
2022-08-09T06:46:40.196Z,77.83
2022-08-09T06:46:56.499Z,76.12
2022-08-09T06:47:39.792Z,76.65
2022-08-09T06:48:07.012Z,77.12
2022-08-09T06:48:42.948Z,76.32
2022-08-09T06:49:28.964Z,75.31
2022-08-09T06:50:14.097Z,76.02
2022-08-09T06:50:28.041Z,75.62
2022-08-09T06:51:04.511Z,75.71
2022-08-09T06:51:39.065Z,76.02
2022-08-09T06:52:15.947Z,75.62
2022-08-09T06:52:49.243Z,75.31
2022-08-09T06:53:24.302Z,75.38
2022-08-09T06:54:00.950Z,75.42
2022-08-09T06:54:35.108Z,75.18
2022-08-09T06:55:12.744Z,74.88
2022-08-09T06:55:48.440Z,75.18
2022-08-09T06:56:20.670Z,74.48
2022-08-09T06:56:55.988Z,75.08
2022-08-09T06:58:01.608Z,74.68
2022-08-09T06:58:06.707Z,75.08
2022-08-09T07:00:49.540Z,75.48
2022-08-09T07:00:51.247Z,75.24
2022-08-09T07:00:56.455Z,75.54
2022-08-09T07:00:57.180Z,75.78
2022-08-09T07:01:02.526Z,76.54
2022-08-09T07:01:54.745Z,74.84
2022-08-09T07:02:13.092Z,74.04
2022-08-09T07:02:48.186Z,74.90
2022-08-09T07:03:28.006Z,74.24
2022-08-09T07:04:00.730Z,74.01
2022-08-09T07:04:33.573Z,74.04
2022-08-09T07:05:09.004Z,74.80
2022-08-09T07:06:02.442Z,74.40
2022-08-09T07:06:19.609Z,74.10
2022-08-09T07:07:00.443Z,73.90
2022-08-09T07:07:59.859Z,74.97
2022-08-09T07:08:04.924Z,75.27
2022-08-09T07:08:40.230Z,74.54
2022-08-09T07:09:55.521Z,74.03
2022-08-09T07:09:55.955Z,73.43
2022-08-09T07:10:31.385Z,74.20
2022-08-09T07:11:01.655Z,72.69
2022-08-09T07:11:51.920Z,71.89
2022-08-09T07:12:17.374Z,71.09
2022-08-09T07:12:47.726Z,70.29
2022-08-09T07:13:28.093Z,70.86
2022-08-09T07:14:05.482Z,71.56
2022-08-09T07:14:33.466Z,71.53
2022-08-09T07:16:34.987Z,72.42
2022-08-09T07:16:39.377Z,72.33
2022-08-09T07:16:42.610Z,70.92
2022-08-09T07:16:57.925Z,72.59
2022-08-09T07:17:39.538Z,70.39
2022-08-09T07:18:04.698Z,71.69
2022-08-09T07:18:39.877Z,68.56
2022-08-09T07:19:22.955Z,69.56
2022-08-09T07:19:51.039Z,69.66
2022-08-09T07:20:25.607Z,68.43
2022-08-09T07:21:00.862Z,66.33
2022-08-09T07:21:36.654Z,67.43
2022-08-09T07:22:11.647Z,68.52
2022-08-09T07:22:52.417Z,66.13
2022-08-09T07:23:22.310Z,67.93
2022-08-09T07:23:58.255Z,69.49
2022-08-09T07:24:40.750Z,66.13
2022-08-09T07:25:09.561Z,68.52
2022-08-09T07:25:43.640Z,68.43
2022-08-09T07:26:18.813Z,67.60
2022-08-09T07:26:54.016Z,66.30
2022-08-09T07:27:33.873Z,68.29
2022-08-09T07:28:04.529Z,66.30
2022-08-09T07:29:07.986Z,68.49
2022-08-09T07:29:15.234Z,66.89
2022-08-09T07:29:50.573Z,69.56
2022-08-09T07:30:27.922Z,68.16
2022-08-09T07:31:01.006Z,68.96
2022-08-09T07:31:38.639Z,67.33
2022-08-09T07:32:11.509Z,66.50
2022-08-09T07:32:46.698Z,68.90
2022-08-09T07:33:22.558Z,67.50
2022-08-09T07:33:57.863Z,66.20